Time;durP1;ratioP1;P1;durP2;ratioP2;P2;SDS_P1;SDS_P2;PMS_P1;PMS_P2;Temp;Humidity;BMP_temperature;BMP_pressure;BME280_temperature;BME280_humidity;BME280_pressure;Samples;Min_cycle;Max_cycle;Signal;HPM_P1;HPM_P2
2021/05/21 00:02:14;;;;;;;5.65;4.18;;;;;;;11.30;77.44;100476.41;4737273;30;20129;-65
2021/05/21 00:04:40;;;;;;;5.05;3.97;;;;;;;11.25;77.59;100476.81;4743398;30;20472;-65
2021/05/21 00:07:05;;;;;;;7.15;3.78;;;;;;;11.23;77.84;100480.03;4736823;30;20036;-65
2021/05/21 00:09:31;;;;;;;7.85;4.28;;;;;;;11.23;77.92;100482.03;4750347;30;20032;-65
2021/05/21 00:11:57;;;;;;;8.30;5.10;;;;;;;11.20;77.94;100478.03;4750310;30;20117;-65
2021/05/21 00:14:22;;;;;;;10.02;5.10;;;;;;;11.19;77.87;100475.59;4736887;30;20059;-65
2021/05/21 00:16:48;;;;;;;6.85;4.53;;;;;;;11.15;77.72;100472.81;4736683;30;20036;-65
2021/05/21 00:19:13;;;;;;;8.13;4.65;;;;;;;11.10;78.42;100474.03;4736750;30;20069;-65
2021/05/21 00:21:39;;;;;;;7.57;5.45;;;;;;;11.06;77.79;100478.84;4736603;30;20069;-65
2021/05/21 00:24:04;;;;;;;7.20;5.00;;;;;;;11.00;78.12;100477.66;4736590;30;20045;-65
2021/05/21 00:26:30;;;;;;;5.57;4.75;;;;;;;10.95;78.24;100480.06;4736486;30;20147;-65
2021/05/21 00:28:56;;;;;;;7.15;4.70;;;;;;;10.91;78.62;100470.81;4736733;30;20162;-66
2021/05/21 00:31:21;;;;;;;7.43;5.30;;;;;;;10.91;78.64;100474.44;4738392;30;20318;-65
2021/05/21 00:33:49;;;;;;;6.13;5.00;;;;;;;10.86;78.57;100477.66;4739973;30;20028;-65
2021/05/21 00:36:14;;;;;;;6.35;5.00;;;;;;;10.83;78.65;100478.47;4740063;30;20056;-66
2021/05/21 00:38:39;;;;;;;6.82;4.75;;;;;;;10.80;78.70;100468.84;4740100;30;20163;-66
2021/05/21 00:41:05;;;;;;;7.68;4.95;;;;;;;10.78;79.33;100482.50;4738081;30;20350;-65
2021/05/21 00:43:30;;;;;;;5.80;4.75;;;;;;;10.76;79.30;100482.09;4740011;30;20024;-66
2021/05/21 00:45:56;;;;;;;6.65;5.45;;;;;;;10.72;79.18;100478.47;4739857;30;20311;-65
2021/05/21 00:48:21;;;;;;;9.15;5.57;;;;;;;10.68;79.15;100477.69;4739861;30;20048;-65
2021/05/21 00:50:49;;;;;;;6.47;4.78;;;;;;;10.63;79.55;100469.63;4753591;30;20044;-65
2021/05/21 00:53:16;;;;;;;6.68;4.43;;;;;;;10.62;79.70;100473.66;4753293;30;20376;-65
2021/05/21 00:55:42;;;;;;;7.80;5.82;;;;;;;10.59;79.52;100473.66;4739530;30;20036;-65
2021/05/21 00:58:07;;;;;;;6.47;5.30;;;;;;;10.55;79.73;100476.47;4739686;30;20033;-65
2021/05/21 01:00:32;;;;;;;9.00;5.78;;;;;;;10.51;79.84;100472.84;4739792;30;20032;-65
2021/05/21 01:02:58;;;;;;;7.68;6.00;;;;;;;10.47;79.57;100475.66;4753171;30;20039;-66
2021/05/21 01:05:23;;;;;;;7.28;4.97;;;;;;;10.43;79.95;100472.03;4740204;30;20094;-66
2021/05/21 01:07:49;;;;;;;9.48;5.57;;;;;;;10.42;79.74;100480.88;4739856;30;20344;-66
2021/05/21 01:10:14;;;;;;;8.32;6.03;;;;;;;10.39;79.33;100496.50;4739065;30;20028;-66
2021/05/21 01:12:39;;;;;;;10.63;5.60;;;;;;;10.36;79.70;100493.69;4739608;30;20053;-66
2021/05/21 01:15:07;;;;;;;8.73;5.45;;;;;;;10.36;79.89;100493.69;4739388;30;20036;-66
2021/05/21 01:17:33;;;;;;;6.30;5.63;;;;;;;10.36;80.60;100500.13;4739438;30;20025;-66
2021/05/21 01:19:59;;;;;;;8.85;6.72;;;;;;;10.36;79.96;100493.69;4739255;30;20029;-67
2021/05/21 01:22:25;;;;;;;8.35;5.53;;;;;;;10.32;80.12;100488.06;4739373;30;20074;-65
2021/05/21 01:24:50;;;;;;;12.10;5.72;;;;;;;10.29;80.19;100493.69;4738219;30;20028;-65
2021/05/21 01:27:17;;;;;;;8.25;5.57;;;;;;;10.25;79.85;100495.69;4738950;30;20319;-65
2021/05/21 01:29:43;;;;;;;6.45;5.40;;;;;;;10.19;79.94;100493.25;4753030;30;20032;-65
2021/05/21 01:32:10;;;;;;;10.93;5.82;;;;;;;10.15;80.66;100492.44;4739161;30;20111;-65
2021/05/21 01:34:38;;;;;;;6.75;5.88;;;;;;;10.10;80.12;100492.00;4738034;30;20167;-65
2021/05/21 01:37:17;;;;;;;8.25;5.65;;;;;;;10.07;81.11;100502.03;4739298;30;20036;-65
2021/05/21 01:39:43;;;;;;;9.10;5.47;;;;;;;10.02;80.31;100490.38;4738815;30;20333;-65
2021/05/21 01:42:13;;;;;;;6.07;5.25;;;;;;;9.97;80.59;100496.38;4737802;30;20167;-65
2021/05/21 01:44:40;;;;;;;7.70;6.18;;;;;;;9.91;80.71;100495.97;4739018;30;20085;-66
2021/05/21 01:47:06;;;;;;;8.68;6.53;;;;;;;9.90;81.09;100491.56;4738786;30;20164;-65
2021/05/21 01:49:32;;;;;;;10.48;6.30;;;;;;;9.90;81.19;100499.97;4738944;30;20033;-65
2021/05/21 01:52:00;;;;;;;7.75;6.55;;;;;;;9.89;80.75;100495.56;4739002;30;20033;-66
2021/05/21 01:54:27;;;;;;;8.27;6.43;;;;;;;9.87;80.54;100500.78;4738511;30;20033;-65
2021/05/21 01:56:52;;;;;;;7.47;6.28;;;;;;;9.83;80.89;100500.72;4738898;30;20353;-65
2021/05/21 01:59:19;;;;;;;7.32;6.03;;;;;;;9.79;80.92;100508.34;4738609;30;20028;-65
2021/05/21 02:01:45;;;;;;;7.07;5.55;;;;;;;9.73;80.90;100509.13;4738825;30;20043;-65
2021/05/21 02:04:10;;;;;;;8.70;5.90;;;;;;;9.68;80.47;100504.69;4752102;30;20033;-66
2021/05/21 02:06:38;;;;;;;6.82;5.63;;;;;;;9.64;81.07;100515.09;4738702;30;20059;-66
2021/05/21 02:09:06;;;;;;;8.35;6.22;;;;;;;9.60;81.53;100517.91;4738680;30;20044;-66
2021/05/21 02:11:31;;;;;;;11.35;6.72;;;;;;;9.60;81.01;100519.91;4738076;30;20040;-66
2021/05/21 02:13:56;;;;;;;9.93;6.20;;;;;;;9.59;81.21;100524.72;4738511;30;20323;-66
2021/05/21 02:16:22;;;;;;;8.85;6.38;;;;;;;9.57;81.80;100529.88;4738421;30;20108;-66
2021/05/21 02:18:47;;;;;;;8.52;6.50;;;;;;;9.55;81.48;100540.69;4738109;30;20046;-66
2021/05/21 02:21:13;;;;;;;7.93;6.22;;;;;;;9.53;81.57;100536.66;4738298;30;20464;-65
2021/05/21 02:23:39;;;;;;;8.52;7.13;;;;;;;9.51;82.07;100537.06;4738080;30;20029;-65
2021/05/21 02:26:04;;;;;;;10.18;6.95;;;;;;;9.49;81.57;100530.25;4738171;30;20028;-65
2021/05/21 02:28:29;;;;;;;10.00;7.50;;;;;;;9.48;82.28;100535.03;4738070;30;20295;-65
2021/05/21 02:30:54;;;;;;;12.70;7.20;;;;;;;9.45;81.46;100535.84;4738334;30;20401;-65
2021/05/21 02:33:20;;;;;;;9.90;6.88;;;;;;;9.46;82.27;100537.44;4738000;30;20322;-65
2021/05/21 02:35:45;;;;;;;8.07;6.75;;;;;;;9.44;82.02;100534.22;4737896;30;20033;-65
2021/05/21 02:38:11;;;;;;;10.18;6.95;;;;;;;9.40;81.85;100536.22;4738014;30;20036;-65
2021/05/21 02:40:36;;;;;;;9.77;6.70;;;;;;;9.40;81.90;100538.22;4737797;30;20325;-65
2021/05/21 02:43:01;;;;;;;12.75;7.53;;;;;;;9.36;81.67;100538.19;4737985;30;20418;-65
2021/05/21 02:45:27;;;;;;;12.65;7.28;;;;;;;9.34;82.28;100534.16;4737723;30;20037;-65
2021/05/21 02:47:52;;;;;;;9.95;7.32;;;;;;;9.32;82.17;100534.56;4738320;30;20418;-65
2021/05/21 02:50:18;;;;;;;19.50;6.75;;;;;;;9.29;82.07;100535.31;4737727;30;20086;-65
2021/05/21 02:52:43;;;;;;;10.90;6.47;;;;;;;9.24;82.08;100533.69;4737613;30;20032;-65
2021/05/21 02:55:10;;;;;;;10.93;7.20;;;;;;;9.21;81.46;100530.88;4737514;30;20045;-64
2021/05/21 02:57:35;;;;;;;8.93;7.07;;;;;;;9.15;82.17;100533.22;4737459;30;20045;-66
2021/05/21 03:00:02;;;;;;;11.48;6.82;;;;;;;9.12;82.58;100533.22;4737790;30;20040;-65
2021/05/21 03:02:27;;;;;;;13.27;8.23;;;;;;;9.09;82.79;100537.59;4737560;30;20033;-64
2021/05/21 03:04:53;;;;;;;7.65;6.10;;;;;;;9.07;82.04;100527.97;4738145;30;20487;-65
2021/05/21 03:07:19;;;;;;;10.48;6.72;;;;;;;9.04;82.33;100528.72;4735949;30;20043;-65
2021/05/21 03:09:44;;;;;;;11.15;6.82;;;;;;;8.99;81.74;100522.28;4737568;30;20353;-65
2021/05/21 03:12:11;;;;;;;10.30;7.32;;;;;;;8.95;82.16;100521.47;4737523;30;20032;-65
2021/05/21 03:14:37;;;;;;;8.77;7.30;;;;;;;8.98;83.02;100534.69;4737164;30;20100;-65
2021/05/21 03:17:03;;;;;;;7.30;6.50;;;;;;;8.98;82.28;100540.31;4736790;30;20032;-66
2021/05/21 03:19:29;;;;;;;11.57;6.85;;;;;;;8.99;82.97;100541.91;4737552;30;20033;-65
2021/05/21 03:21:54;;;;;;;11.10;8.02;;;;;;;8.98;82.90;100539.50;4736811;30;20061;-65
2021/05/21 03:24:20;;;;;;;14.48;8.15;;;;;;;8.98;82.73;100545.09;4737356;30;20415;-64
2021/05/21 03:26:45;;;;;;;11.73;9.10;;;;;;;8.96;83.47;100539.88;4737215;30;20276;-65
2021/05/21 03:29:11;;;;;;;19.20;9.18;;;;;;;8.94;83.27;100542.28;4737028;30;20109;-65
2021/05/21 03:31:36;;;;;;;14.48;8.60;;;;;;;8.93;83.22;100546.28;4736968;30;20036;-65
2021/05/21 03:34:02;;;;;;;12.70;9.23;;;;;;;8.93;83.18;100546.28;4736816;30;20364;-65
2021/05/21 03:36:28;;;;;;;12.50;9.30;;;;;;;8.93;83.38;100551.06;4737028;30;20036;-65
2021/05/21 03:38:53;;;;;;;14.02;9.70;;;;;;;8.94;83.21;100550.69;4736669;30;20326;-65
2021/05/21 03:41:18;;;;;;;12.98;8.70;;;;;;;8.94;83.32;100550.69;4750721;30;20414;-65
2021/05/21 03:43:44;;;;;;;14.70;9.13;;;;;;;8.94;83.33;100550.69;4736683;30;20033;-65
2021/05/21 03:46:09;;;;;;;12.13;8.52;;;;;;;8.96;83.47;100550.28;4736970;30;20170;-65
2021/05/21 03:48:34;;;;;;;12.55;8.85;;;;;;;8.98;83.67;100551.53;4750774;30;20115;-65
2021/05/21 03:51:00;;;;;;;11.77;9.13;;;;;;;9.05;83.91;100559.22;4736593;30;20028;-65
2021/05/21 03:53:25;;;;;;;10.65;8.75;;;;;;;9.11;84.44;100559.66;4736919;30;20349;-65
2021/05/21 03:55:51;;;;;;;11.30;8.65;;;;;;;9.15;84.34;100563.28;4737013;30;20036;-65
2021/05/21 03:58:16;;;;;;;10.40;8.38;;;;;;;9.18;83.72;100559.69;4736782;30;20414;-65
2021/05/21 04:00:42;;;;;;;11.68;8.43;;;;;;;9.23;84.27;100562.13;4736704;30;20044;-65
2021/05/21 04:03:07;;;;;;;12.68;9.43;;;;;;;9.25;84.06;100563.34;4736604;30;20389;-65
2021/05/21 04:05:33;;;;;;;15.25;9.40;;;;;;;9.28;84.28;100556.94;4737223;30;20116;-65
2021/05/21 04:07:59;;;;;;;12.57;9.00;;;;;;;9.31;84.70;100566.59;4740386;30;20032;-65
2021/05/21 04:10:26;;;;;;;12.63;9.18;;;;;;;9.37;84.85;100565.03;4740405;30;20050;-66
2021/05/21 04:12:51;;;;;;;17.13;9.90;;;;;;;9.44;84.60;100569.91;4740312;30;20029;-65
2021/05/21 04:15:17;;;;;;;12.55;8.80;;;;;;;9.51;84.19;100572.75;4739260;30;20479;-64
2021/05/21 04:17:42;;;;;;;12.02;9.05;;;;;;;9.60;84.50;100578.84;4739357;30;20029;-65
2021/05/21 04:20:08;;;;;;;13.77;9.00;;;;;;;9.68;83.79;100576.88;4739121;30;20157;-64
2021/05/21 04:22:34;;;;;;;13.98;8.70;;;;;;;9.75;83.93;100571.28;4753154;30;20028;-64
2021/05/21 04:24:59;;;;;;;11.00;8.32;;;;;;;9.82;82.86;100577.72;4739051;30;20028;-65
2021/05/21 04:27:25;;;;;;;11.63;9.05;;;;;;;9.89;82.49;100583.41;4739806;30;20106;-65
2021/05/21 04:29:50;;;;;;;10.05;8.82;;;;;;;9.97;82.80;100583.44;4739954;30;20413;-64
2021/05/21 04:32:15;;;;;;;12.13;9.05;;;;;;;10.06;82.66;100581.06;4739152;30;20067;-65
2021/05/21 04:34:42;;;;;;;9.85;8.23;;;;;;;10.15;83.14;100585.13;4739806;30;20063;-65
2021/05/21 04:37:08;;;;;;;10.43;8.15;;;;;;;10.25;82.48;100582.78;4739909;30;20032;-65
2021/05/21 04:39:33;;;;;;;12.02;9.32;;;;;;;10.33;82.28;100579.59;4740050;30;20058;-65
2021/05/21 04:41:58;;;;;;;10.85;8.40;;;;;;;10.43;82.46;100575.22;4739244;30;20315;-65
2021/05/21 04:44:24;;;;;;;13.02;8.20;;;;;;;10.50;82.34;100570.41;4739896;30;20027;-65
2021/05/21 04:46:49;;;;;;;11.07;8.35;;;;;;;10.60;81.72;100577.25;4738618;30;20068;-65
2021/05/21 04:49:32;;;;;;;10.50;7.72;;;;;;;10.69;81.61;100569.25;4739851;30;20321;-65
2021/05/21 04:51:58;;;;;;;11.70;7.32;;;;;;;10.79;81.45;100573.28;4740145;30;20036;-65
2021/05/21 04:54:23;;;;;;;9.77;8.27;;;;;;;10.88;81.06;100578.50;4739097;30;20033;-65
2021/05/21 04:56:49;;;;;;;14.90;9.82;;;;;;;10.97;81.02;100581.72;4751794;30;20079;-65
2021/05/21 04:59:14;;;;;;;13.10;9.13;;;;;;;11.06;81.12;100574.50;4738994;30;20029;-65
2021/05/21 05:01:40;;;;;;;13.88;8.52;;;;;;;11.17;81.61;100582.94;4736155;30;20047;-65
2021/05/21 05:04:06;;;;;;;13.20;8.50;;;;;;;11.25;80.20;100583.75;4737087;30;20020;-65
2021/05/21 05:06:31;;;;;;;10.40;7.55;;;;;;;11.35;80.35;100580.91;4735507;30;20128;-65
2021/05/21 05:08:56;;;;;;;13.77;7.97;;;;;;;11.45;80.20;100582.09;4738684;30;20111;-65
2021/05/21 05:11:22;;;;;;;12.98;9.27;;;;;;;11.57;80.51;100575.25;4737809;30;20402;-65
2021/05/21 05:13:47;;;;;;;12.52;7.88;;;;;;;11.65;80.43;100574.03;4739537;30;20376;-65
2021/05/21 05:16:12;;;;;;;10.27;8.20;;;;;;;11.72;79.57;100576.81;4753055;30;20500;-65
2021/05/21 05:18:38;;;;;;;8.45;7.55;;;;;;;11.80;79.85;100572.81;4739156;30;20457;-65
2021/05/21 05:21:05;;;;;;;9.18;7.78;;;;;;;11.87;79.04;100569.97;4739398;30;20584;-65
2021/05/21 05:23:31;;;;;;;12.65;7.25;;;;;;;11.98;79.87;100573.56;4739179;30;20110;-65
2021/05/21 05:25:56;;;;;;;10.48;8.10;;;;;;;12.09;80.58;100581.97;4739422;30;20425;-65
2021/05/21 05:28:24;;;;;;;10.13;7.75;;;;;;;12.18;79.00;100581.53;4739118;30;20486;-65
2021/05/21 05:30:49;;;;;;;10.40;7.85;;;;;;;12.28;80.13;100575.84;4739177;30;20434;-66
2021/05/21 05:33:15;;;;;;;13.15;7.25;;;;;;;12.37;78.85;100593.13;4739382;30;20447;-65
2021/05/21 05:35:41;;;;;;;8.88;7.05;;;;;;;12.47;79.38;100591.47;4738834;30;20682;-65
2021/05/21 05:38:08;;;;;;;9.50;7.05;;;;;;;12.56;79.22;100597.44;4739245;30;20333;-65
2021/05/21 05:40:35;;;;;;;9.20;6.85;;;;;;;12.66;79.07;100598.63;4738773;30;20036;-65
2021/05/21 05:43:01;;;;;;;8.52;7.10;;;;;;;12.73;78.58;100594.94;4738543;30;20059;-65
2021/05/21 05:45:27;;;;;;;11.85;6.07;;;;;;;12.79;78.24;100590.47;4738174;30;20413;-65
2021/05/21 05:47:52;;;;;;;8.82;6.57;;;;;;;12.86;78.85;100593.22;4738619;30;20036;-65
2021/05/21 05:50:17;;;;;;;9.98;6.63;;;;;;;12.90;77.81;100588.38;4738602;30;20303;-65
2021/05/21 05:52:42;;;;;;;11.23;6.13;;;;;;;12.96;77.35;100589.53;4738313;30;20490;-65
2021/05/21 05:55:09;;;;;;;8.05;6.05;;;;;;;13.01;77.19;100591.91;4737944;30;20410;-65
2021/05/21 05:57:34;;;;;;;10.95;6.53;;;;;;;13.08;78.04;100591.84;4737410;30;20465;-65
2021/05/21 05:59:59;;;;;;;9.82;6.20;;;;;;;13.16;78.47;100596.25;4738087;30;20127;-65
2021/05/21 06:02:25;;;;;;;10.23;6.13;;;;;;;13.21;77.46;100595.84;4738026;30;20046;-65
2021/05/21 06:04:50;;;;;;;9.50;6.50;;;;;;;13.27;78.02;100602.63;4738336;30;20048;-65
2021/05/21 06:07:15;;;;;;;7.28;5.72;;;;;;;13.35;77.03;100585.63;4738373;30;20040;-65
2021/05/21 06:09:41;;;;;;;10.15;5.53;;;;;;;13.39;76.28;100594.84;4738318;30;20303;-65
2021/05/21 06:12:07;;;;;;;10.82;5.43;;;;;;;13.44;75.72;100594.44;4738470;30;20136;-65
2021/05/21 06:14:32;;;;;;;10.30;5.18;;;;;;;13.51;76.35;100591.53;4738193;30;20455;-65
2021/05/21 06:16:57;;;;;;;10.82;5.85;;;;;;;13.61;78.50;100597.06;4738277;30;20032;-65
2021/05/21 06:19:23;;;;;;;9.45;4.80;;;;;;;13.69;77.84;100597.78;4738013;30;20041;-64
2021/05/21 06:21:48;;;;;;;10.77;6.82;;;;;;;13.80;76.77;100592.84;4737714;30;20056;-67
2021/05/21 06:24:16;;;;;;;10.88;5.25;;;;;;;13.88;75.23;100593.56;4738226;30;20025;-64
2021/05/21 06:27:15;;;;;;;12.98;5.30;;;;;;;13.98;75.83;100583.38;4737075;30;20115;-65
2021/05/21 06:29:29;;;;;;;10.13;5.55;;;;;;;14.07;74.81;100589.31;4737224;30;20048;-65
2021/05/21 06:31:55;;;;;;;7.32;4.80;;;;;;;14.16;74.01;100586.78;4738187;30;20311;-64
2021/05/21 06:34:20;;;;;;;7.95;4.57;;;;;;;14.22;73.58;100579.44;4737990;30;20067;-64
2021/05/21 06:36:45;;;;;;;6.75;5.07;;;;;;;14.31;73.17;100582.56;4738302;30;20090;-64
2021/05/21 06:39:11;;;;;;;4.18;3.75;;;;;;;14.37;72.95;100594.19;4737952;30;20120;-64
2021/05/21 06:41:36;;;;;;;8.52;5.13;;;;;;;14.47;74.34;100584.78;4737893;30;20119;-64
2021/05/21 06:44:01;;;;;;;5.88;4.53;;;;;;;14.57;74.47;100577.41;4737615;30;20153;-65
2021/05/21 06:46:27;;;;;;;5.70;4.90;;;;;;;14.64;74.04;100575.25;4737854;30;20028;-65
2021/05/21 06:48:53;;;;;;;6.07;4.85;;;;;;;14.76;74.41;100579.53;4736806;30;20485;-64
2021/05/21 06:51:19;;;;;;;8.55;5.10;;;;;;;14.84;74.30;100584.66;4737731;30;20116;-65
2021/05/21 06:53:44;;;;;;;8.07;5.10;;;;;;;14.89;72.04;100580.56;4737975;30;20037;-64
2021/05/21 06:56:12;;;;;;;9.32;3.53;;;;;;;14.97;73.48;100573.53;4737713;30;20056;-65
2021/05/21 06:58:37;;;;;;;6.32;3.80;;;;;;;15.04;69.58;100572.63;4737208;30;20028;-65
2021/05/21 07:01:03;;;;;;;4.93;4.07;;;;;;;15.10;70.80;100577.41;4737690;30;20382;-65
2021/05/21 07:03:28;;;;;;;7.72;3.45;;;;;;;15.19;71.15;100570.38;4737569;30;20388;-65
2021/05/21 07:05:55;;;;;;;3.75;3.20;;;;;;;15.26;71.46;100571.03;4737610;30;20053;-64
2021/05/21 07:08:20;;;;;;;6.60;4.13;;;;;;;15.33;71.44;100568.09;4737480;30;20032;-65
2021/05/21 07:10:46;;;;;;;6.10;3.40;;;;;;;15.44;70.80;100562.25;4737528;30;20041;-65
2021/05/21 07:13:13;;;;;;;7.05;3.30;;;;;;;15.53;69.93;100565.31;4735498;30;20334;-65
2021/05/21 07:15:39;;;;;;;4.60;3.10;;;;;;;15.65;68.91;100569.59;4737283;30;20025;-65
2021/05/21 07:18:06;;;;;;;5.25;3.20;;;;;;;15.72;68.98;100561.75;4737526;30;20072;-65
2021/05/21 07:20:31;;;;;;;3.85;2.83;;;;;;;15.82;67.70;100581.81;4737343;30;20361;-65
2021/05/21 07:22:57;;;;;;;4.65;2.92;;;;;;;15.86;67.10;100572.00;4737311;30;20033;-65
2021/05/21 07:25:23;;;;;;;5.05;2.97;;;;;;;15.92;67.35;100569.47;4737138;30;20027;-65
2021/05/21 07:27:49;;;;;;;5.18;3.45;;;;;;;16.00;67.94;100577.41;4737126;30;20059;-66
2021/05/21 07:30:15;;;;;;;10.18;2.88;;;;;;;16.11;67.15;100571.50;4737184;30;20041;-66
2021/05/21 07:32:47;;;;;;;3.60;2.47;;;;;;;16.19;65.62;100577.84;4737365;30;20032;-65
2021/05/21 07:35:13;;;;;;;7.88;2.97;;;;;;;16.26;65.91;100569.97;4737264;30;20033;-66
2021/05/21 07:37:39;;;;;;;4.97;2.30;;;;;;;16.31;64.57;100575.13;4737029;30;20047;-65
2021/05/21 07:40:07;;;;;;;6.90;2.58;;;;;;;16.37;63.54;100566.91;4737452;30;20049;-65
2021/05/21 07:42:34;;;;;;;4.20;2.47;;;;;;;16.48;64.93;100578.84;4736785;30;20037;-65
2021/05/21 07:44:59;;;;;;;4.43;2.25;;;;;;;16.52;62.96;100573.06;4737081;30;20078;-66
2021/05/21 07:47:25;;;;;;;3.50;2.20;;;;;;;16.56;63.24;100576.63;4736940;30;20397;-65
2021/05/21 07:49:50;;;;;;;5.47;2.40;;;;;;;16.66;65.10;100572.78;4737261;30;20071;-65
2021/05/21 07:52:19;;;;;;;3.75;2.78;;;;;;;16.76;65.22;100577.44;4737095;30;20040;-65
2021/05/21 07:54:44;;;;;;;4.85;2.15;;;;;;;16.88;64.10;100576.72;4737029;30;20040;-64
2021/05/21 07:57:11;;;;;;;4.35;2.05;;;;;;;17.01;62.17;100576.03;4736948;30;20036;-64
2021/05/21 07:59:37;;;;;;;6.03;1.90;;;;;;;17.14;58.91;100582.59;4736791;30;20145;-64
2021/05/21 08:02:02;;;;;;;2.55;1.45;;;;;;;17.23;56.86;100588.44;4736955;30;20036;-64
2021/05/21 08:04:27;;;;;;;3.25;1.85;;;;;;;17.25;56.41;100580.28;4736760;30;20028;-64
2021/05/21 08:06:53;;;;;;;1.75;1.42;;;;;;;17.30;59.01;100574.09;4737065;30;20032;-64
2021/05/21 08:09:18;;;;;;;2.47;1.60;;;;;;;17.41;59.47;100568.91;4736725;30;20045;-64
2021/05/21 08:11:44;;;;;;;2.58;1.40;;;;;;;17.47;56.77;100574.84;4736584;30;20030;-66
2021/05/21 08:14:11;;;;;;;3.65;1.50;;;;;;;17.49;57.02;100567.47;4736964;30;20325;-64
2021/05/21 08:16:37;;;;;;;4.43;2.00;;;;;;;17.59;57.98;100566.41;4736655;30;20082;-64
2021/05/21 08:19:03;;;;;;;3.65;1.70;;;;;;;17.66;57.73;100567.47;4736876;30;20031;-65
2021/05/21 08:21:28;;;;;;;3.40;1.90;;;;;;;17.76;58.68;100569.25;4736776;30;20045;-64
2021/05/21 08:23:55;;;;;;;4.75;1.67;;;;;;;17.80;56.13;100564.25;4736559;30;20035;-64
2021/05/21 08:26:25;;;;;;;1.90;1.55;;;;;;;17.81;57.32;100563.81;4736658;30;20033;-65
2021/05/21 08:28:55;;;;;;;5.25;1.60;;;;;;;17.83;57.72;100569.06;4736979;30;20040;-65
2021/05/21 08:31:21;;;;;;;2.58;1.70;;;;;;;17.87;56.67;100569.75;4736686;30;20032;-65
2021/05/21 08:33:48;;;;;;;6.25;1.77;;;;;;;17.89;57.13;100565.22;4736546;30;20043;-65
2021/05/21 08:36:14;;;;;;;2.25;1.80;;;;;;;17.95;57.66;100562.63;4736893;30;20322;-65
2021/05/21 08:38:44;;;;;;;5.13;1.83;;;;;;;17.99;57.51;100554.78;4736547;30;20032;-65
2021/05/21 08:41:16;;;;;;;11.55;2.00;;;;;;;18.05;57.79;100560.72;4736868;30;20032;-63
2021/05/21 08:43:45;;;;;;;3.85;1.60;;;;;;;18.08;54.72;100554.94;4735904;30;20094;-64
2021/05/21 08:46:11;;;;;;;6.40;1.70;;;;;;;18.17;57.53;100554.28;4735966;30;20024;-65
2021/05/21 08:48:36;;;;;;;4.03;2.25;;;;;;;18.26;57.89;100554.41;4734916;30;20114;-62
2021/05/21 08:51:02;;;;;;;3.20;1.60;;;;;;;18.35;56.71;100557.41;4736038;30;20090;-64
2021/05/21 08:53:43;;;;;;;2.28;1.70;;;;;;;18.37;54.76;100552.06;4739490;30;20031;-63
2021/05/21 08:56:10;;;;;;;6.00;1.63;;;;;;;18.44;53.26;100562.41;4737366;30;20048;-64
2021/05/21 08:58:36;;;;;;;1.92;1.52;;;;;;;18.48;52.26;100540.31;4739464;30;20055;-63
2021/05/21 09:01:03;;;;;;;2.45;1.40;;;;;;;18.51;53.71;100536.56;4741470;30;20485;-64
2021/05/21 09:03:31;;;;;;;2.47;1.50;;;;;;;18.55;55.08;100534.41;4741430;30;20100;-63
2021/05/21 09:06:14;;;;;;;12.20;2.00;;;;;;;18.60;52.48;100538.72;4740325;30;20097;-61
2021/05/21 09:08:53;;;;;;;3.03;1.55;;;;;;;18.62;51.05;100528.50;4728248;30;20033;-60
2021/05/21 09:11:43;;;;;;;3.70;1.63;;;;;;;18.61;52.53;100535.44;4739268;30;20110;-64
2021/05/21 09:14:18;;;;;;;2.88;1.55;;;;;;;18.66;51.80;100539.81;4744144;30;20029;-63
2021/05/21 09:16:44;;;;;;;3.00;1.50;;;;;;;18.65;52.92;100532.53;4738981;30;20033;-63
2021/05/21 09:19:28;;;;;;;2.53;1.70;;;;;;;18.75;51.34;100543.56;4739909;30;20029;-63
2021/05/21 09:21:56;;;;;;;2.42;1.48;;;;;;;18.77;49.80;100538.22;4746127;30;20372;-62
2021/05/21 09:24:31;;;;;;;2.95;1.50;;;;;;;18.82;51.42;100539.69;4737088;30;20044;-64
2021/05/21 09:26:57;;;;;;;2.90;1.80;;;;;;;18.81;50.77;100533.19;4752647;30;20124;-64
2021/05/21 09:29:44;;;;;;;3.75;1.70;;;;;;;18.86;51.26;100525.31;4740066;30;20024;-64
2021/05/21 09:32:28;;;;;;;5.63;2.35;;;;;;;18.91;51.70;100539.03;4739285;30;20061;-64
2021/05/21 09:35:16;;;;;;;2.58;1.50;;;;;;;19.07;50.67;100536.03;4738694;30;20064;-64
2021/05/21 09:37:52;;;;;;;2.10;1.70;;;;;;;19.14;49.65;100527.22;4751206;30;20029;-64
2021/05/21 09:40:28;;;;;;;4.07;1.92;;;;;;;19.24;48.06;100523.25;4751644;30;20024;-65
2021/05/21 09:43:00;;;;;;;2.55;1.65;;;;;;;19.27;50.41;100524.38;4738251;30;20040;-67
2021/05/21 09:45:40;;;;;;;1.75;1.20;;;;;;;19.37;50.16;100532.53;4738050;30;20107;-65
2021/05/21 09:48:16;;;;;;;3.03;1.52;;;;;;;19.34;46.52;100527.75;4743774;30;20111;-65
2021/05/21 09:50:50;;;;;;;4.22;1.17;;;;;;;19.36;46.26;100525.25;4752909;30;20106;-64
2021/05/21 09:53:19;;;;;;;3.47;1.10;;;;;;;19.36;44.57;100528.09;4751107;30;20119;-65
2021/05/21 09:56:02;;;;;;;6.88;1.75;;;;;;;19.43;48.05;100525.00;4751576;30;20066;-66
2021/05/21 09:58:30;;;;;;;2.40;1.27;;;;;;;19.48;46.09;100525.69;4738978;30;20071;-66
2021/05/21 10:01:22;;;;;;;1.67;1.33;;;;;;;19.49;47.13;100524.44;4753575;30;20481;-68
2021/05/21 10:03:47;;;;;;;;;;;;;;;19.59;46.87;100526.13;4737150;30;20044;-67
2021/05/21 10:06:23;;;;;;;2.63;1.30;;;;;;;19.61;46.96;100524.41;4752107;30;20208;-65
2021/05/21 10:08:56;;;;;;;3.78;1.17;;;;;;;19.58;44.86;100516.78;4738482;30;20441;-65
2021/05/21 10:11:27;;;;;;;7.25;1.40;;;;;;;19.60;46.78;100522.00;4738961;30;20043;-65
2021/05/21 10:14:05;;;;;;;;;;;;;;;;;;;;;
2021/05/21 10:16:41;;;;;;;4.53;1.15;;;;;;;19.75;49.31;100506.78;4739583;30;20054;-64
2021/05/21 10:19:13;;;;;;;5.10;1.20;;;;;;;19.79;45.38;100506.66;4739138;30;20124;-65
2021/05/21 10:21:39;;;;;;;5.07;1.52;;;;;;;19.83;45.60;100500.81;4738490;30;20052;-67
2021/05/21 10:24:15;;;;;;;2.80;1.05;;;;;;;19.80;42.72;100496.84;4738648;30;20025;-66
2021/05/21 10:26:41;;;;;;;1.98;1.17;;;;;;;19.80;43.62;100496.84;4752128;30;20090;-65
2021/05/21 10:29:19;;;;;;;3.63;1.55;;;;;;;19.84;43.69;100499.56;4735746;30;20067;-65
2021/05/21 10:31:44;;;;;;;2.22;1.13;;;;;;;19.86;46.24;100494.19;4738203;30;20071;-65
2021/05/21 10:34:21;;;;;;;4.05;1.27;;;;;;;19.89;45.35;100491.19;4736982;30;20056;-64
2021/05/21 10:36:47;;;;;;;4.25;1.40;;;;;;;19.91;45.44;100494.38;4737785;30;20434;-66
2021/05/21 10:39:20;;;;;;;5.32;1.10;;;;;;;19.96;46.58;100488.06;4738741;30;20059;-66
2021/05/21 10:41:55;;;;;;;1.70;0.95;;;;;;;20.05;44.32;100487.34;4739177;30;20033;-65
2021/05/21 10:44:31;;;;;;;2.17;1.08;;;;;;;20.06;43.98;100486.88;4739572;30;20091;-66
2021/05/21 10:47:15;;;;;;;7.70;1.17;;;;;;;20.14;46.43;100480.88;4738564;30;20040;-65
2021/05/21 10:49:41;;;;;;;4.55;1.25;;;;;;;20.20;45.80;100481.88;4735817;30;20107;-65
2021/05/21 10:52:06;;;;;;;3.72;1.00;;;;;;;20.23;44.55;100466.66;4737567;30;20119;-65
2021/05/21 10:54:34;;;;;;;5.82;1.30;;;;;;;20.27;46.07;100464.47;4736042;30;20097;-65
2021/05/21 10:57:13;;;;;;;2.85;1.42;;;;;;;20.30;45.61;100463.56;4737326;30;20028;-65
2021/05/21 10:59:40;;;;;;;4.07;1.40;;;;;;;20.34;47.09;100453.56;4736933;30;20028;-65
2021/05/21 11:02:07;;;;;;;1.17;0.98;;;;;;;20.37;43.98;100452.63;4737045;30;20404;-66
2021/05/21 11:04:33;;;;;;;3.03;1.10;;;;;;;20.42;46.33;100454.09;4737292;30;20036;-66
2021/05/21 11:07:00;;;;;;;5.30;1.20;;;;;;;20.43;44.59;100446.34;4736504;30;20032;-66
2021/05/21 11:09:29;;;;;;;3.17;0.90;;;;;;;20.45;44.01;100438.91;4736571;30;20077;-65
2021/05/21 11:12:00;;;;;;;3.03;1.15;;;;;;;20.44;43.20;100437.31;4737597;30;20031;-65
2021/05/21 11:14:33;;;;;;;5.43;1.30;;;;;;;20.48;45.67;100440.81;4750715;30;20029;-65
2021/05/21 11:17:07;;;;;;;1.42;0.82;;;;;;;20.52;42.56;100441.44;4737309;30;20025;-66
2021/05/21 11:19:33;;;;;;;1.00;0.70;;;;;;;20.51;41.90;100430.50;4737187;30;20029;-66
2021/05/21 11:22:38;;;;;;;5.35;1.20;;;;;;;20.49;42.21;100430.97;4750649;30;20050;-66
2021/05/21 11:25:07;;;;;;;0.80;0.80;;;;;;;20.47;43.05;100436.34;4730846;30;20124;-66
2021/05/21 11:27:35;;;;;;;9.27;1.80;;;;;;;20.55;43.76;100434.81;4750059;30;20040;-66
2021/05/21 11:30:08;;;;;;;5.75;1.08;;;;;;;20.59;43.06;100415.47;4736899;30;20033;-66